createdAt,value
2018-04-13T05:34:32.803Z,97822
2018-04-13T05:36:38.448Z,97824
2018-04-13T05:38:43.769Z,97812
2018-04-13T05:40:49.031Z,97809
2018-04-13T05:42:54.610Z,97809
2018-04-13T05:45:00.031Z,97825
2018-04-13T05:47:05.503Z,97826
2018-04-13T05:49:10.141Z,97824
2018-04-13T05:51:14.290Z,97825
2018-04-13T05:53:18.389Z,97821
2018-04-13T05:55:23.053Z,97817
2018-04-13T05:57:27.441Z,97823
2018-04-13T05:59:31.631Z,97824
2018-04-13T06:01:36.192Z,97829
2018-04-13T06:03:40.087Z,97827
2018-04-13T06:05:44.504Z,97825
2018-04-13T06:07:48.978Z,97831
2018-04-13T06:09:52.826Z,97830
2018-04-13T06:11:56.779Z,97827
2018-04-13T06:14:01.212Z,97826
2018-04-13T06:16:05.393Z,97826
2018-04-13T06:18:09.786Z,97824
2018-04-13T06:20:14.892Z,97826
2018-04-13T06:22:19.550Z,97826
2018-04-13T06:24:23.676Z,97835
2018-04-13T06:26:28.112Z,97836
2018-04-13T06:28:32.321Z,97837
2018-04-13T06:30:36.334Z,97836
2018-04-13T06:32:40.320Z,97832
2018-04-13T06:34:44.306Z,97828
2018-04-13T06:36:48.873Z,97844
2018-04-13T06:38:52.902Z,97841
2018-04-13T06:40:56.771Z,97847
2018-04-13T06:43:00.937Z,97859
2018-04-13T06:45:05.059Z,97856
2018-04-13T06:47:08.913Z,97849
2018-04-13T06:49:13.085Z,97844
2018-04-13T06:51:17.197Z,97846
2018-04-13T06:53:21.052Z,97844
2018-04-13T06:55:24.891Z,97848
2018-04-13T06:57:29.004Z,97851
2018-04-13T06:59:33.078Z,97845
2018-04-13T07:01:37.030Z,97847
2018-04-13T07:03:41.307Z,97853
2018-04-13T07:05:45.820Z,97844
2018-04-13T07:07:50.210Z,97853
2018-04-13T07:09:54.076Z,97858
2018-04-13T07:11:58.605Z,97855
2018-04-13T07:14:02.561Z,97861
2018-04-13T07:16:06.787Z,97869
2018-04-13T07:18:10.943Z,97871
2018-04-13T07:20:14.933Z,97868
2018-04-13T07:22:19.217Z,97873
2018-04-13T07:24:23.245Z,97877
2018-04-13T07:26:27.718Z,97876
2018-04-13T07:28:32.832Z,97876
2018-04-13T07:30:37.513Z,97870
2018-04-13T07:32:41.979Z,97869
2018-04-13T07:34:45.856Z,97857
2018-04-13T07:36:49.713Z,97858
2018-04-13T07:38:53.942Z,97856
2018-04-13T07:40:57.856Z,97866
2018-04-13T07:43:02.101Z,97878
2018-04-13T07:45:06.741Z,97887
2018-04-13T07:47:10.572Z,97892
2018-04-13T07:49:14.566Z,97887
2018-04-13T07:51:18.686Z,97884
2018-04-13T07:53:23.005Z,97879
2018-04-13T07:55:26.875Z,97879
2018-04-13T07:57:31.486Z,97877
2018-04-13T07:59:35.597Z,97879
2018-04-13T08:01:39.536Z,97886
2018-04-13T08:03:43.658Z,97882
2018-04-13T08:05:47.630Z,97879
2018-04-13T08:07:51.549Z,97880
2018-04-13T08:09:55.881Z,97877
2018-04-13T08:11:59.766Z,97873
2018-04-13T08:14:03.868Z,97882
2018-04-13T08:16:08.566Z,97882
2018-04-13T08:18:12.713Z,97884
2018-04-13T08:20:16.573Z,97883
2018-04-13T08:22:20.749Z,97878
2018-04-13T08:24:24.694Z,97879
2018-04-13T08:26:28.643Z,97881
2018-04-13T08:28:33.151Z,97877
2018-04-13T08:30:37.052Z,97874
2018-04-13T08:32:41.001Z,97877
2018-04-13T08:34:45.195Z,97874
2018-04-13T08:36:49.221Z,97874
2018-04-13T08:38:53.697Z,97879
2018-04-13T08:40:58.290Z,97877
2018-04-13T08:43:02.562Z,97877
2018-04-13T08:45:06.980Z,97878
2018-04-13T08:47:12.979Z,97890
2018-04-13T08:49:17.245Z,97883
2018-04-13T08:51:20.993Z,97879
2018-04-13T08:53:24.914Z,97895
2018-04-13T08:55:29.114Z,97899
2018-04-13T08:57:33.353Z,97904
2018-04-13T08:59:37.329Z,97910
2018-04-13T09:01:41.983Z,97911
2018-04-13T09:03:46.810Z,97914
2018-04-13T09:05:50.930Z,97903
2018-04-13T09:07:55.646Z,97915
2018-04-13T09:09:59.852Z,97913
2018-04-13T09:12:03.935Z,97914
2018-04-13T09:14:08.449Z,97909
2018-04-13T09:16:12.339Z,97915
2018-04-13T09:18:16.289Z,97911
2018-04-13T09:20:20.409Z,97912
2018-04-13T09:22:24.417Z,97918
2018-04-13T09:24:28.909Z,97920
2018-04-13T09:26:33.122Z,97908
2018-04-13T09:28:37.254Z,97922
2018-04-13T09:30:41.080Z,97916
2018-04-13T09:32:45.244Z,97924
2018-04-13T09:34:51.641Z,97920
2018-04-13T09:36:55.513Z,97917
2018-04-13T09:38:59.744Z,97922
2018-04-13T09:41:03.890Z,97925
2018-04-13T09:43:08.492Z,97928
2018-04-13T09:45:12.914Z,97931
2018-04-13T09:47:16.884Z,97923
2018-04-13T09:49:20.830Z,97926
2018-04-13T09:51:25.281Z,97922
2018-04-13T09:53:29.292Z,97916
2018-04-13T09:59:48.585Z,97920
2018-04-13T10:01:53.089Z,97915
2018-04-13T10:04:01.281Z,97919
2018-04-13T10:06:05.705Z,97913
2018-04-13T10:08:10.249Z,97912
2018-04-13T10:11:39.383Z,97911
2018-04-13T10:13:43.306Z,97907
2018-04-13T10:15:47.384Z,97910
2018-04-13T10:17:52.129Z,97910
2018-04-13T10:19:56.111Z,97911
2018-04-13T10:22:00.375Z,97911
2018-04-13T10:24:04.632Z,97912
2018-04-13T10:26:08.474Z,97911
2018-04-13T10:28:12.393Z,97906
2018-04-13T10:30:22.383Z,97906
2018-04-13T10:32:26.359Z,97902
2018-04-13T10:34:31.729Z,97896
2018-04-13T10:36:35.888Z,97899
2018-04-13T10:38:39.767Z,97902
2018-04-13T10:40:43.800Z,97904
2018-04-13T10:42:47.936Z,97900
2018-04-13T10:44:51.777Z,97896
2018-04-13T10:46:56.181Z,97891
2018-04-13T10:49:01.052Z,97897
2018-04-13T10:51:07.102Z,97884
2018-04-13T10:53:10.984Z,97897
2018-04-13T10:55:15.142Z,97897
2018-04-13T10:57:19.268Z,97901
2018-04-13T10:59:23.318Z,97901
2018-04-13T11:01:27.704Z,97902
2018-04-13T11:03:31.655Z,97900
2018-04-13T11:05:35.702Z,97897
2018-04-13T11:07:39.881Z,97899
2018-04-13T11:09:44.019Z,97906
2018-04-13T11:11:48.479Z,97901
2018-04-13T11:13:52.805Z,97898
2018-04-13T11:15:56.709Z,97904
2018-04-13T11:18:00.771Z,97901
2018-04-13T11:20:05.051Z,97906
2018-04-13T11:22:08.919Z,97904
2018-04-13T11:24:12.755Z,97909
2018-04-13T11:26:16.909Z,97919
2018-04-13T11:28:21.061Z,97914
2018-04-13T11:30:26.557Z,97909
2018-04-13T11:32:30.776Z,97906
2018-04-13T11:34:34.761Z,97906
2018-04-13T11:36:39.418Z,97894
2018-04-13T11:38:43.908Z,97903
2018-04-13T11:40:47.792Z,97905
2018-04-13T11:42:52.467Z,97902
2018-04-13T11:44:56.667Z,97907
2018-04-13T11:47:00.548Z,97908
2018-04-13T11:49:04.743Z,97913
2018-04-13T11:51:08.889Z,97918
2018-04-13T11:53:12.750Z,97913
2018-04-13T11:55:16.675Z,97909
2018-04-13T11:57:20.779Z,97909
2018-04-13T11:59:24.630Z,97922
2018-04-13T12:01:28.684Z,97926
2018-04-13T12:03:32.854Z,97929
2018-04-13T12:05:36.741Z,97924
2018-04-13T12:07:40.593Z,97923
2018-04-13T12:09:44.747Z,97927
2018-04-13T12:11:48.638Z,97911
2018-04-13T12:13:52.503Z,97930
2018-04-13T12:15:56.782Z,97920
2018-04-13T12:18:00.665Z,97923
2018-04-13T12:20:04.941Z,97924
2018-04-13T12:22:09.177Z,97917
2018-04-13T12:24:13.035Z,97915
2018-04-13T12:26:16.835Z,97918
2018-04-13T12:28:22.300Z,97931
2018-04-13T12:30:26.284Z,97941
2018-04-13T12:32:30.170Z,97919
2018-04-13T12:34:34.341Z,97922
2018-04-13T12:36:38.255Z,97937
2018-04-13T12:38:42.113Z,97933
2018-04-13T12:40:46.241Z,97963
2018-04-13T12:42:50.101Z,97956
2018-04-13T12:44:53.958Z,97952
2018-04-13T12:46:58.158Z,97971
2018-04-13T12:49:02.353Z,97975
2018-04-13T12:51:06.292Z,97950
2018-04-13T12:53:10.461Z,97954
2018-04-13T12:55:15.008Z,97990
2018-04-13T12:57:19.177Z,97973
2018-04-13T12:59:23.450Z,97969
2018-04-13T13:01:27.754Z,97971
2018-04-13T13:03:31.610Z,97969
2018-04-13T13:05:35.773Z,97976
2018-04-13T13:07:39.809Z,97984
2018-04-13T13:09:44.023Z,97982
2018-04-13T13:11:48.461Z,97986
2018-04-13T13:13:52.743Z,97990
2018-04-13T13:15:56.769Z,97995
2018-04-13T13:18:01.523Z,97988
2018-04-13T13:20:05.413Z,97998
2018-04-13T13:22:09.393Z,97996
2018-04-13T13:24:13.607Z,97993
2018-04-13T13:26:17.545Z,98008
2018-04-13T13:28:21.445Z,98004
2018-04-13T13:30:25.605Z,98009
2018-04-13T13:32:29.700Z,98004
2018-04-13T13:34:34.426Z,98007
2018-04-13T13:36:38.908Z,98001
2018-04-13T13:38:42.781Z,98008
2018-04-13T13:40:46.826Z,97997
2018-04-13T13:42:51.472Z,98013
2018-04-13T13:44:55.413Z,98023
2018-04-13T13:46:59.485Z,98027
2018-04-13T13:49:03.880Z,98010
2018-04-13T13:51:08.064Z,98019
2018-04-13T13:53:12.131Z,98018
2018-04-13T13:55:16.329Z,98016
2018-04-13T13:57:20.254Z,98029
2018-04-13T13:59:24.483Z,98040
2018-04-13T14:01:28.634Z,98043
2018-04-13T14:03:32.516Z,98036
2018-04-13T14:05:36.386Z,98057
2018-04-13T14:07:40.560Z,98037
2018-04-13T14:09:44.492Z,98067
2018-04-13T14:11:48.511Z,98061
2018-04-13T14:13:52.808Z,98053
2018-04-13T14:15:56.874Z,98097
2018-04-13T14:18:00.901Z,98044
2018-04-13T14:20:05.260Z,98058
2018-04-13T14:22:09.449Z,98050
2018-04-13T14:24:13.476Z,98052
2018-04-13T14:26:17.771Z,98078
2018-04-13T14:28:22.029Z,98050
2018-04-13T14:30:26.289Z,98073
2018-04-13T14:32:30.943Z,98048
2018-04-13T14:34:34.941Z,98052
2018-04-13T14:36:39.057Z,98061
2018-04-13T14:38:43.294Z,98068
2018-04-13T14:40:47.186Z,98080
2018-04-13T14:42:51.217Z,98063
2018-04-13T14:44:55.456Z,98045
2018-04-13T14:46:59.439Z,98062
2018-04-13T14:49:03.315Z,98065
2018-04-13T14:51:07.511Z,98073
2018-04-13T14:53:11.434Z,98044
2018-04-13T14:55:15.393Z,98085
2018-04-13T14:57:19.594Z,98082
2018-04-13T14:59:23.533Z,98074
2018-04-13T15:01:28.186Z,98072
2018-04-13T15:03:32.365Z,98089
2018-04-13T15:06:07.856Z,98089
2018-04-13T15:08:11.702Z,98108
2018-04-13T15:10:15.901Z,98101
2018-04-13T15:12:19.885Z,98105
2018-04-13T15:14:24.012Z,98110
2018-04-13T15:16:28.209Z,98114
2018-04-13T15:18:32.160Z,98113
2018-04-13T15:20:36.409Z,98114
2018-04-13T15:22:40.661Z,98126
2018-04-13T15:24:44.684Z,98126
2018-04-13T15:26:48.654Z,98125
2018-04-13T15:28:52.966Z,98115
2018-04-13T15:30:56.875Z,98127
2018-04-13T15:33:00.746Z,98108
2018-04-13T15:35:05.068Z,98111
2018-04-13T15:37:09.183Z,98109
2018-04-13T15:39:13.154Z,98118
2018-04-13T15:41:17.652Z,98118
2018-04-13T15:43:21.989Z,98110
2018-04-13T15:45:25.917Z,98108
2018-04-13T15:47:30.079Z,98116
2018-04-13T15:49:34.085Z,98112
2018-04-13T15:51:38.085Z,98116
2018-04-13T15:53:42.196Z,98105
2018-04-13T15:55:46.227Z,98100
2018-04-13T15:57:50.346Z,98116
2018-04-13T15:59:54.749Z,98116
2018-04-13T16:01:58.684Z,98111
2018-04-13T16:04:06.116Z,98131
2018-04-13T16:06:10.622Z,98125
2018-04-13T16:08:14.552Z,98117
2018-04-13T16:10:18.561Z,98139
2018-04-13T16:12:22.682Z,98130
2018-04-13T16:14:26.692Z,98140
2018-04-13T16:16:30.632Z,98147
2018-04-13T16:18:34.954Z,98151
2018-04-13T16:20:39.096Z,98155
2018-04-13T16:22:43.089Z,98160
2018-04-13T16:24:47.395Z,98157
2018-04-13T16:26:51.498Z,98163
2018-04-13T16:28:55.445Z,98167
2018-04-13T16:30:59.652Z,98165
2018-04-13T16:33:03.561Z,98172
2018-04-13T16:35:07.481Z,98174
2018-04-13T16:37:11.713Z,98181
2018-04-13T16:39:15.576Z,98173
2018-04-13T16:41:19.469Z,98187
2018-04-13T16:43:23.700Z,98194
2018-04-13T16:45:27.624Z,98195
2018-04-13T16:47:31.645Z,98205
2018-04-13T16:49:35.933Z,98214
2018-04-13T16:51:39.772Z,98215
2018-04-13T16:53:43.681Z,98238
2018-04-13T16:55:47.909Z,98251
2018-04-13T16:57:51.826Z,98283
2018-04-13T16:59:55.760Z,98279
2018-04-13T17:02:00.011Z,98273
2018-04-13T17:04:03.933Z,98276
2018-04-13T17:06:07.827Z,98296
2018-04-13T17:08:12.078Z,98340
2018-04-13T17:10:16.129Z,98312
2018-04-13T17:12:20.074Z,98296
2018-04-13T17:14:24.465Z,98355
2018-04-13T17:16:28.453Z,98305
2018-04-13T17:18:32.417Z,98330
2018-04-13T17:20:36.639Z,98328
2018-04-13T17:22:40.640Z,98330
2018-04-13T17:24:44.590Z,98332
